Time;durP1;ratioP1;P1;durP2;ratioP2;P2;SDS_P1;SDS_P2;PMS_P1;PMS_P2;Temp;Humidity;BMP_temperature;BMP_pressure;BME280_temperature;BME280_humidity;BME280_pressure;Samples;Min_cycle;Max_cycle;Signal;HPM_P1;HPM_P2
2022/10/20 00:00:41;;;;;;;;;;;23.50;56.60;;;;;;1526843;77;1946;-54
2022/10/20 00:02:43;;;;;;;;;;;23.50;56.50;;;;;;1527134;77;1565;-53
2022/10/20 00:04:45;;;;;;;;;;;23.50;56.50;;;;;;1526107;77;720;-57
2022/10/20 00:06:47;;;;;;;;;;;23.60;56.50;;;;;;1525399;76;1148;-53
2022/10/20 00:08:49;;;;;;;;;;;23.60;56.40;;;;;;1525319;77;760;-58
2022/10/20 00:10:54;;;;;;;;;;;23.60;56.40;;;;;;1514403;77;736;-57
2022/10/20 00:12:56;;;;;;;;;;;23.60;56.30;;;;;;1532278;77;767;-57
2022/10/20 00:14:58;;;;;;;;;;;23.60;56.30;;;;;;1525489;77;800;-55
2022/10/20 00:17:00;;;;;;;;;;;23.60;56.30;;;;;;1526029;77;1566;-54
2022/10/20 00:19:02;;;;;;;;;;;23.60;56.30;;;;;;1518062;77;1940;-57
2022/10/20 00:21:05;;;;;;;;;;;23.60;56.30;;;;;;1525766;77;746;-57
2022/10/20 00:23:07;;;;;;;;;;;23.50;56.30;;;;;;1528603;77;750;-57
2022/10/20 00:25:09;;;;;;;;;;;23.60;56.30;;;;;;1527001;77;1133;-53
2022/10/20 00:27:11;;;;;;;;;;;23.60;56.20;;;;;;1526317;77;781;-53
2022/10/20 00:29:13;;;;;;;;;;;23.70;56.30;;;;;;1529565;77;739;-58
2022/10/20 00:31:15;;;;;;;;;;;23.60;56.10;;;;;;1532639;76;1535;-58
2022/10/20 00:33:17;;;;;;;;;;;23.70;56.30;;;;;;1545612;75;772;-58
2022/10/20 00:35:19;;;;;;;;;;;23.60;56.10;;;;;;1547554;75;1165;-58
2022/10/20 00:37:20;;;;;;;;;;;23.60;56.20;;;;;;1548209;75;777;-57
2022/10/20 00:39:22;;;;;;;;;;;23.60;56.10;;;;;;1539405;75;1943;-57
2022/10/20 00:41:24;;;;;;;;;;;23.60;56.20;;;;;;1547020;76;792;-57
2022/10/20 00:43:28;;;;;;;;;;;23.60;56.20;;;;;;1548660;75;774;-57
2022/10/20 00:45:30;;;;;;;;;;;23.50;56.30;;;;;;1549232;75;1884;-57
2022/10/20 00:47:38;;;;;;;;;;;23.60;56.30;;;;;;1567977;75;749;-57
2022/10/20 00:49:40;;;;;;;;;;;23.60;56.00;;;;;;1545949;75;781;-57
2022/10/20 00:51:42;;;;;;;;;;;23.50;56.00;;;;;;1550687;75;695;-57
2022/10/20 00:53:44;;;;;;;;;;;23.70;56.10;;;;;;1549109;75;778;-57
2022/10/20 00:55:47;;;;;;;;;;;23.60;56.00;;;;;;1560084;75;1157;-57
2022/10/20 00:57:49;;;;;;;;;;;23.70;56.10;;;;;;1535437;75;651;-57
2022/10/20 00:59:51;;;;;;;;;;;23.70;56.00;;;;;;1549044;75;1928;-57
2022/10/20 01:01:53;;;;;;;;;;;23.70;56.00;;;;;;1537989;75;791;-57
2022/10/20 01:03:54;;;;;;;;;;;23.70;56.00;;;;;;1555246;75;678;-57
2022/10/20 01:05:56;;;;;;;;;;;23.70;56.00;;;;;;1545503;76;1177;-57
2022/10/20 01:08:00;;;;;;;;;;;23.60;55.90;;;;;;1548952;76;748;-57
2022/10/20 01:10:02;;;;;;;;;;;23.60;55.70;;;;;;1543002;75;704;-57
2022/10/20 01:12:05;;;;;;;;;;;23.60;55.80;;;;;;1549799;75;817;-57
2022/10/20 01:14:15;;;;;;;;;;;23.70;56.00;;;;;;1546698;75;1719;-57
2022/10/20 01:16:27;;;;;;;;;;;23.70;55.90;;;;;;1547482;75;1129;-57
2022/10/20 01:18:43;;;;;;;;;;;23.70;55.90;;;;;;1548266;75;1822;-57
2022/10/20 01:20:50;;;;;;;;;;;23.60;55.80;;;;;;1547593;75;1944;-57
2022/10/20 01:22:56;;;;;;;;;;;23.60;56.00;;;;;;1551632;75;771;-57
2022/10/20 01:24:59;;;;;;;;;;;23.70;56.20;;;;;;1550281;75;789;-57
2022/10/20 01:27:20;;;;;;;;;;;23.70;56.20;;;;;;1549050;75;1597;-57
2022/10/20 01:29:29;;;;;;;;;;;23.70;56.10;;;;;;1546820;76;761;-57
2022/10/20 01:31:38;;;;;;;;;;;23.60;56.10;;;;;;1541721;75;1107;-57
2022/10/20 01:33:45;;;;;;;;;;;23.60;56.00;;;;;;1562683;74;1894;-54
2022/10/20 01:35:54;;;;;;;;;;;23.70;56.10;;;;;;1563862;75;1166;-55
2022/10/20 01:37:58;;;;;;;;;;;23.60;56.00;;;;;;1536042;75;1670;-57
2022/10/20 01:40:04;;;;;;;;;;;23.60;56.10;;;;;;1540031;76;1956;-53
2022/10/20 01:42:10;;;;;;;;;;;23.70;56.20;;;;;;1554825;76;1763;-57
2022/10/20 01:44:13;;;;;;;;;;;23.60;56.00;;;;;;1546195;74;776;-57
2022/10/20 01:46:15;;;;;;;;;;;23.70;56.00;;;;;;1539902;74;1158;-58
2022/10/20 01:48:17;;;;;;;;;;;23.60;56.00;;;;;;1550334;75;713;-57
2022/10/20 01:50:19;;;;;;;;;;;23.60;56.10;;;;;;1561438;75;726;-57
2022/10/20 01:52:21;;;;;;;;;;;23.60;56.00;;;;;;1566936;74;751;-58
2022/10/20 01:54:24;;;;;;;;;;;23.60;56.10;;;;;;1544919;74;758;-58
2022/10/20 01:56:27;;;;;;;;;;;23.60;56.00;;;;;;1559279;75;1599;-57
2022/10/20 01:58:30;;;;;;;;;;;23.60;56.20;;;;;;1559249;74;842;-56
2022/10/20 02:00:32;;;;;;;;;;;23.60;56.30;;;;;;1542721;74;1940;-57
2022/10/20 02:02:35;;;;;;;;;;;23.50;56.30;;;;;;1544574;74;771;-57
2022/10/20 02:04:42;;;;;;;;;;;23.60;56.30;;;;;;1550633;74;718;-57
2022/10/20 02:07:00;;;;;;;;;;;23.60;56.20;;;;;;1552045;75;1838;-57
2022/10/20 02:09:06;;;;;;;;;;;23.60;56.10;;;;;;1558669;74;1932;-57
2022/10/20 02:11:09;;;;;;;;;;;23.60;56.00;;;;;;1562363;74;752;-57
2022/10/20 02:13:11;;;;;;;;;;;23.70;56.00;;;;;;1565188;74;716;-55
2022/10/20 02:15:14;;;;;;;;;;;23.60;55.80;;;;;;1560344;74;1143;-58
2022/10/20 02:17:16;;;;;;;;;;;23.60;55.70;;;;;;1553862;74;779;-57
2022/10/20 02:19:19;;;;;;;;;;;23.70;55.80;;;;;;1560826;74;819;-54
2022/10/20 02:21:21;;;;;;;;;;;23.70;55.80;;;;;;1552134;74;1950;-57
2022/10/20 02:23:22;;;;;;;;;;;23.60;55.70;;;;;;1570415;74;1531;-56
2022/10/20 02:25:25;;;;;;;;;;;23.70;55.90;;;;;;1557123;74;1161;-55
2022/10/20 02:27:27;;;;;;;;;;;23.60;55.80;;;;;;1551861;74;718;-54
2022/10/20 02:29:31;;;;;;;;;;;23.70;55.90;;;;;;1558137;75;832;-57
2022/10/20 02:31:33;;;;;;;;;;;23.70;55.80;;;;;;1550557;74;659;-58
2022/10/20 02:33:35;;;;;;;;;;;23.70;55.80;;;;;;1549459;75;951;-57
2022/10/20 02:35:36;;;;;;;;;;;23.70;55.70;;;;;;1554049;75;1202;-57
2022/10/20 02:37:38;;;;;;;;;;;23.70;55.70;;;;;;1532073;76;1578;-57
2022/10/20 02:39:40;;;;;;;;;;;23.60;55.70;;;;;;1523236;75;939;-57
2022/10/20 02:41:42;;;;;;;;;;;23.70;55.80;;;;;;1531206;75;1956;-57
2022/10/20 02:43:44;;;;;;;;;;;23.70;55.90;;;;;;1562932;75;794;-54
2022/10/20 02:45:46;;;;;;;;;;;23.70;55.80;;;;;;1543665;75;1117;-55
2022/10/20 02:47:48;;;;;;;;;;;23.70;55.70;;;;;;1555949;75;675;-52
2022/10/20 02:49:50;;;;;;;;;;;23.80;55.60;;;;;;1536875;75;809;-57
2022/10/20 02:51:51;;;;;;;;;;;23.70;55.60;;;;;;1547046;75;1663;-55
2022/10/20 02:53:53;;;;;;;;;;;23.70;55.70;;;;;;1549325;75;743;-57
2022/10/20 02:55:55;;;;;;;;;;;23.70;55.60;;;;;;1544432;75;1136;-57
2022/10/20 02:57:57;;;;;;;;;;;23.70;55.60;;;;;;1550211;75;789;-55
2022/10/20 02:59:59;;;;;;;;;;;23.70;55.60;;;;;;1539895;75;1944;-53
2022/10/20 03:02:01;;;;;;;;;;;23.70;55.60;;;;;;1555896;75;655;-57
2022/10/20 03:04:03;;;;;;;;;;;23.70;55.70;;;;;;1552429;75;783;-58
2022/10/20 03:06:11;;;;;;;;;;;23.60;55.70;;;;;;1546449;75;1601;-57
2022/10/20 03:08:13;;;;;;;;;;;23.60;55.70;;;;;;1555280;75;747;-57
2022/10/20 03:10:15;;;;;;;;;;;23.60;55.70;;;;;;1530165;76;776;-57
2022/10/20 03:12:17;;;;;;;;;;;23.60;56.00;;;;;;1547551;75;773;-57
2022/10/20 03:14:19;;;;;;;;;;;23.60;55.90;;;;;;1538528;75;680;-54
2022/10/20 03:16:21;;;;;;;;;;;23.70;56.10;;;;;;1553344;75;1176;-53
2022/10/20 03:18:22;;;;;;;;;;;23.50;56.00;;;;;;1551057;75;708;-57
2022/10/20 03:20:24;;;;;;;;;;;23.60;55.90;;;;;;1536149;75;1934;-57
2022/10/20 03:22:26;;;;;;;;;;;23.60;55.90;;;;;;1543148;76;764;-57
2022/10/20 03:24:28;;;;;;;;;;;23.60;56.00;;;;;;1550166;75;741;-57
2022/10/20 03:26:30;;;;;;;;;;;23.60;56.00;;;;;;1552568;75;1144;-57
2022/10/20 03:28:32;;;;;;;;;;;23.60;56.00;;;;;;1553976;75;775;-56
2022/10/20 03:30:34;;;;;;;;;;;23.60;56.00;;;;;;1550064;75;966;-55
2022/10/20 03:32:35;;;;;;;;;;;23.60;56.00;;;;;;1549902;75;990;-55
2022/10/20 03:34:37;;;;;;;;;;;23.60;55.90;;;;;;1547686;74;1493;-58
2022/10/20 03:36:39;;;;;;;;;;;23.70;55.90;;;;;;1538925;74;1182;-57
2022/10/20 03:38:44;;;;;;;;;;;23.60;55.70;;;;;;1558215;74;725;-57
2022/10/20 03:40:46;;;;;;;;;;;23.60;55.70;;;;;;1546391;74;1925;-57
2022/10/20 03:42:48;;;;;;;;;;;23.60;55.70;;;;;;1552577;74;743;-57
2022/10/20 03:44:50;;;;;;;;;;;23.60;55.70;;;;;;1545842;76;784;-57
2022/10/20 03:46:52;;;;;;;;;;;23.60;55.70;;;;;;1554187;74;1109;-57
2022/10/20 03:48:54;;;;;;;;;;;23.70;55.80;;;;;;1552878;75;1679;-57
2022/10/20 03:50:56;;;;;;;;;;;23.70;55.70;;;;;;1549630;74;712;-56
2022/10/20 03:52:57;;;;;;;;;;;23.60;55.60;;;;;;1546898;76;721;-53
2022/10/20 03:54:59;;;;;;;;;;;23.60;55.70;;;;;;1556636;74;719;-57
2022/10/20 03:57:01;;;;;;;;;;;23.60;55.70;;;;;;1559025;74;1112;-57
2022/10/20 03:59:03;;;;;;;;;;;23.60;55.80;;;;;;1557485;74;975;-57
2022/10/20 04:01:06;;;;;;;;;;;23.60;55.80;;;;;;1557975;74;1956;-57
2022/10/20 04:03:08;;;;;;;;;;;23.70;55.70;;;;;;1550003;74;837;-57
2022/10/20 04:05:12;;;;;;;;;;;23.70;55.60;;;;;;1565357;74;1102;-57
2022/10/20 04:07:14;;;;;;;;;;;23.70;55.50;;;;;;1558519;74;1863;-58
2022/10/20 04:09:16;;;;;;;;;;;23.70;55.50;;;;;;1555326;74;742;-57
2022/10/20 04:11:17;;;;;;;;;;;23.70;55.50;;;;;;1559264;74;714;-57
2022/10/20 04:13:19;;;;;;;;;;;23.80;55.40;;;;;;1557783;74;717;-57
2022/10/20 04:15:21;;;;;;;;;;;23.70;55.40;;;;;;1551518;74;1583;-57
2022/10/20 04:17:23;;;;;;;;;;;23.70;55.40;;;;;;1556862;74;785;-58
2022/10/20 04:19:25;;;;;;;;;;;23.70;55.40;;;;;;1558827;74;770;-57
2022/10/20 04:21:27;;;;;;;;;;;23.70;55.40;;;;;;1554766;74;1937;-58
2022/10/20 04:23:29;;;;;;;;;;;23.70;55.50;;;;;;1558441;74;771;-58
2022/10/20 04:25:31;;;;;;;;;;;23.60;55.70;;;;;;1557862;74;1133;-58
2022/10/20 04:27:32;;;;;;;;;;;23.60;56.30;;;;;;1556900;74;757;-58
2022/10/20 04:29:34;;;;;;;;;;;23.50;56.50;;;;;;1550916;74;1507;-56
2022/10/20 04:31:36;;;;;;;;;;;23.40;56.50;;;;;;1556645;74;819;-58
2022/10/20 04:33:38;;;;;;;;;;;23.50;56.50;;;;;;1562453;75;1523;-58
2022/10/20 04:35:40;;;;;;;;;;;23.60;56.00;;;;;;1549518;74;1264;-58
2022/10/20 04:37:42;;;;;;;;;;;23.70;55.80;;;;;;1561381;74;700;-58
2022/10/20 04:39:44;;;;;;;;;;;23.70;55.70;;;;;;1567229;74;757;-58
2022/10/20 04:41:45;;;;;;;;;;;23.70;55.50;;;;;;1567436;74;1936;-58
2022/10/20 04:43:52;;;;;;;;;;;23.70;55.50;;;;;;1571530;74;1542;-56
2022/10/20 04:45:57;;;;;;;;;;;23.80;55.30;;;;;;1560726;74;1146;-58
2022/10/20 04:47:58;;;;;;;;;;;23.70;55.40;;;;;;1563507;74;1001;-55
2022/10/20 04:49:59;;;;;;;;;;;23.60;55.30;;;;;;1563545;74;772;-58
2022/10/20 04:52:01;;;;;;;;;;;23.70;55.50;;;;;;1559159;74;717;-58
2022/10/20 04:54:03;;;;;;;;;;;23.70;55.50;;;;;;1567530;74;786;-58
2022/10/20 04:56:06;;;;;;;;;;;23.70;55.40;;;;;;1564353;74;1145;-58
2022/10/20 04:58:08;;;;;;;;;;;23.70;55.50;;;;;;1561909;74;1561;-58
2022/10/20 05:00:10;;;;;;;;;;;23.60;55.50;;;;;;1566346;74;774;-58
2022/10/20 05:02:12;;;;;;;;;;;23.60;55.70;;;;;;1571538;74;1930;-58
2022/10/20 05:04:20;;;;;;;;;;;23.50;56.00;;;;;;1569414;74;768;-58
2022/10/20 05:06:19;;;;;;;;;;;23.60;56.00;;;;;;1568148;74;1564;-58
2022/10/20 05:08:21;;;;;;;;;;;23.50;56.00;;;;;;1570883;74;1789;-58
2022/10/20 05:10:22;;;;;;;;;;;23.60;56.00;;;;;;1563639;74;863;-58
2022/10/20 05:12:24;;;;;;;;;;;23.60;55.80;;;;;;1560772;74;1528;-58
2022/10/20 05:14:26;;;;;;;;;;;23.60;55.70;;;;;;1562053;74;708;-58
2022/10/20 05:16:28;;;;;;;;;;;23.60;55.70;;;;;;1567512;74;1169;-58
2022/10/20 05:18:30;;;;;;;;;;;23.60;55.90;;;;;;1569078;74;735;-59
2022/10/20 05:20:32;;;;;;;;;;;23.50;56.00;;;;;;1558890;74;775;-59
2022/10/20 05:22:34;;;;;;;;;;;23.50;55.90;;;;;;1568575;74;1929;-59
2022/10/20 05:24:35;;;;;;;;;;;23.60;55.80;;;;;;1568762;74;756;-58
2022/10/20 05:26:37;;;;;;;;;;;23.50;55.70;;;;;;1563129;74;1401;-58
2022/10/20 05:28:39;;;;;;;;;;;23.50;56.20;;;;;;1573271;74;898;-58
2022/10/20 05:30:41;;;;;;;;;;;23.50;56.20;;;;;;1570832;74;985;-58
2022/10/20 05:32:43;;;;;;;;;;;23.60;56.20;;;;;;1563002;74;781;-58
2022/10/20 05:34:45;;;;;;;;;;;23.60;56.00;;;;;;1523780;76;1102;-58
2022/10/20 05:36:47;;;;;;;;;;;23.60;55.70;;;;;;1556768;75;1183;-58
2022/10/20 05:38:50;;;;;;;;;;;23.60;55.60;;;;;;1550203;75;725;-58
2022/10/20 05:40:52;;;;;;;;;;;23.60;55.70;;;;;;1556653;75;1914;-58
2022/10/20 05:42:56;;;;;;;;;;;23.50;55.70;;;;;;1572747;75;734;-60
2022/10/20 05:44:58;;;;;;;;;;;23.50;55.80;;;;;;1567511;74;801;-58
2022/10/20 05:47:00;;;;;;;;;;;23.50;55.90;;;;;;1569788;74;1098;-58
2022/10/20 05:49:02;;;;;;;;;;;23.50;56.10;;;;;;1558588;75;686;-58
2022/10/20 05:51:18;;;;;;;;;;;23.50;56.10;;;;;;1559838;75;734;-58
2022/10/20 05:53:20;;;;;;;;;;;23.40;56.00;;;;;;1552476;75;728;-58
2022/10/20 05:55:21;;;;;;;;;;;23.30;56.00;;;;;;1555390;75;1683;-58
2022/10/20 05:57:23;;;;;;;;;;;23.40;56.10;;;;;;1550047;75;724;-58
2022/10/20 05:59:25;;;;;;;;;;;23.30;56.20;;;;;;1553633;74;739;-58
2022/10/20 06:01:37;;;;;;;;;;;23.30;56.30;;;;;;1569684;75;1940;-58
2022/10/20 06:03:31;;;;;;;;;;;23.20;56.20;;;;;;1552109;75;1744;-58
2022/10/20 06:05:33;;;;;;;;;;;23.30;56.30;;;;;;1554544;75;1141;-58
2022/10/20 06:07:35;;;;;;;;;;;23.30;56.30;;;;;;1560350;75;777;-58
2022/10/20 06:09:37;;;;;;;;;;;23.20;56.30;;;;;;1561378;74;1507;-58
2022/10/20 06:11:39;;;;;;;;;;;23.30;56.40;;;;;;1563170;75;785;-58
2022/10/20 06:13:41;;;;;;;;;;;23.20;56.30;;;;;;1558603;75;852;-58
2022/10/20 06:15:45;;;;;;;;;;;23.20;56.30;;;;;;1553497;75;1136;-58
2022/10/20 06:17:47;;;;;;;;;;;23.20;56.30;;;;;;1572102;74;726;-58
2022/10/20 06:19:48;;;;;;;;;;;23.20;56.30;;;;;;1560007;74;754;-58
2022/10/20 06:21:50;;;;;;;;;;;23.20;56.30;;;;;;1559562;74;1947;-58
2022/10/20 06:23:52;;;;;;;;;;;23.10;56.40;;;;;;1546684;75;733;-56
2022/10/20 06:25:54;;;;;;;;;;;23.20;56.40;;;;;;1555736;75;1144;-58
2022/10/20 06:27:56;;;;;;;;;;;23.10;56.50;;;;;;1560602;75;712;-57
2022/10/20 06:29:58;;;;;;;;;;;23.10;56.40;;;;;;1549516;74;686;-58
2022/10/20 06:32:00;;;;;;;;;;;23.10;56.50;;;;;;1562795;75;738;-57
2022/10/20 06:34:03;;;;;;;;;;;23.10;56.40;;;;;;1547500;74;1056;-58
2022/10/20 06:36:05;;;;;;;;;;;23.10;56.50;;;;;;1530624;75;1675;-58
2022/10/20 06:38:07;;;;;;;;;;;23.10;56.50;;;;;;1555819;75;875;-58
2022/10/20 06:40:09;;;;;;;;;;;23.10;56.40;;;;;;1552405;75;744;-58
2022/10/20 06:42:11;;;;;;;;;;;23.10;56.50;;;;;;1556296;75;1943;-58
2022/10/20 06:44:13;;;;;;;;;;;23.10;56.40;;;;;;1557348;75;759;-57
2022/10/20 06:46:16;;;;;;;;;;;23.10;56.50;;;;;;1550350;75;1141;-58
2022/10/20 06:48:18;;;;;;;;;;;23.10;56.50;;;;;;1545037;75;673;-58
2022/10/20 06:50:20;;;;;;;;;;;23.10;56.40;;;;;;1546550;75;1500;-58
2022/10/20 06:52:22;;;;;;;;;;;23.00;56.30;;;;;;1551770;75;779;-58
2022/10/20 06:54:24;;;;;;;;;;;23.10;56.50;;;;;;1554058;75;946;-58
2022/10/20 06:56:27;;;;;;;;;;;23.10;56.40;;;;;;1548187;75;1129;-58
2022/10/20 06:58:29;;;;;;;;;;;23.10;56.50;;;;;;1551850;75;733;-58
2022/10/20 07:00:31;;;;;;;;;;;23.00;56.30;;;;;;1547883;75;825;-58
2022/10/20 07:02:33;;;;;;;;;;;23.00;56.30;;;;;;1535212;75;1943;-58
2022/10/20 07:04:35;;;;;;;;;;;23.10;56.40;;;;;;1551433;75;1551;-58
2022/10/20 07:06:38;;;;;;;;;;;23.10;56.40;;;;;;1541267;76;1131;-58
2022/10/20 07:08:40;;;;;;;;;;;23.00;56.30;;;;;;1550158;75;671;-58
2022/10/20 07:10:41;;;;;;;;;;;23.00;56.30;;;;;;1556967;75;854;-58
2022/10/20 07:12:43;;;;;;;;;;;23.00;56.30;;;;;;1552048;75;703;-58
2022/10/20 07:14:45;;;;;;;;;;;23.00;56.30;;;;;;1552894;76;788;-58
2022/10/20 07:16:47;;;;;;;;;;;23.00;56.30;;;;;;1543011;75;1172;-58
2022/10/20 07:18:49;;;;;;;;;;;23.10;56.40;;;;;;1549767;75;1520;-58
2022/10/20 07:20:51;;;;;;;;;;;23.00;56.30;;;;;;1539204;75;736;-58
2022/10/20 07:22:53;;;;;;;;;;;23.00;56.30;;;;;;1561315;75;1953;-58
2022/10/20 07:24:54;;;;;;;;;;;23.00;56.30;;;;;;1544374;75;713;-58
2022/10/20 07:26:57;;;;;;;;;;;23.00;56.30;;;;;;1539694;75;1143;-58
2022/10/20 07:28:59;;;;;;;;;;;23.00;56.20;;;;;;1537499;76;755;-58
2022/10/20 07:31:04;;;;;;;;;;;23.00;56.20;;;;;;1552489;75;704;-58
2022/10/20 07:33:06;;;;;;;;;;;23.00;56.30;;;;;;1540676;75;1380;-58
2022/10/20 07:35:08;;;;;;;;;;;23.00;56.20;;;;;;1543811;75;1063;-58
2022/10/20 07:37:10;;;;;;;;;;;23.00;56.20;;;;;;1558780;75;706;-58
2022/10/20 07:39:12;;;;;;;;;;;23.00;56.20;;;;;;1552076;75;781;-58
2022/10/20 07:41:14;;;;;;;;;;;23.00;56.20;;;;;;1542623;75;820;-58
2022/10/20 07:43:16;;;;;;;;;;;23.00;56.20;;;;;;1558993;75;1942;-58
2022/10/20 07:45:18;;;;;;;;;;;23.00;56.20;;;;;;1553454;76;1121;-57
2022/10/20 07:47:20;;;;;;;;;;;23.00;56.30;;;;;;1548893;75;1531;-58
2022/10/20 07:49:23;;;;;;;;;;;23.00;56.20;;;;;;1548743;75;822;-57
2022/10/20 07:51:29;;;;;;;;;;;23.00;56.30;;;;;;1548511;75;800;-58
2022/10/20 07:53:30;;;;;;;;;;;23.00;56.20;;;;;;1548028;75;730;-58
2022/10/20 07:55:33;;;;;;;;;;;23.00;56.20;;;;;;1541957;75;1105;-58
2022/10/20 07:57:35;;;;;;;;;;;23.00;56.10;;;;;;1554229;76;773;-58
2022/10/20 07:59:37;;;;;;;;;;;23.00;56.10;;;;;;1555284;75;749;-58
2022/10/20 08:01:39;;;;;;;;;;;23.00;56.10;;;;;;1537378;75;1510;-58
2022/10/20 08:03:41;;;;;;;;;;;22.90;56.20;;;;;;1564154;75;1841;-58
2022/10/20 08:05:42;;;;;;;;;;;23.00;56.20;;;;;;1543906;75;1146;-58
2022/10/20 08:07:44;;;;;;;;;;;23.00;56.10;;;;;;1549557;75;708;-58
2022/10/20 08:09:46;;;;;;;;;;;23.00;56.10;;;;;;1552574;75;753;-58
2022/10/20 08:11:48;;;;;;;;;;;23.00;56.10;;;;;;1547017;75;791;-58
2022/10/20 08:13:50;;;;;;;;;;;23.00;56.10;;;;;;1554096;75;748;-58
2022/10/20 08:15:52;;;;;;;;;;;23.00;56.00;;;;;;1545855;75;1552;-58
2022/10/20 08:17:54;;;;;;;;;;;23.00;56.00;;;;;;1551866;75;736;-58
2022/10/20 08:19:56;;;;;;;;;;;23.00;56.00;;;;;;1542845;75;761;-58
2022/10/20 08:21:58;;;;;;;;;;;23.00;56.00;;;;;;1548991;75;1935;-58
2022/10/20 08:24:01;;;;;;;;;;;23.00;55.90;;;;;;1548093;75;734;-58
2022/10/20 08:26:03;;;;;;;;;;;23.10;56.00;;;;;;1543827;75;1109;-58
2022/10/20 08:28:05;;;;;;;;;;;23.10;55.90;;;;;;1549618;75;875;-58
2022/10/20 08:30:07;;;;;;;;;;;23.10;56.00;;;;;;1555847;75;1563;-58
2022/10/20 08:32:11;;;;;;;;;;;23.10;55.90;;;;;;1539286;75;772;-58
2022/10/20 08:34:13;;;;;;;;;;;23.10;55.80;;;;;;1546879;75;752;-58
2022/10/20 08:36:15;;;;;;;;;;;23.10;55.70;;;;;;1551982;75;1148;-58
2022/10/20 08:38:17;;;;;;;;;;;23.10;55.70;;;;;;1557371;74;740;-57
2022/10/20 08:40:28;;;;;;;;;;;23.10;55.70;;;;;;1555802;74;804;-54
2022/10/20 08:42:31;;;;;;;;;;;23.10;55.80;;;;;;1558581;74;1923;-58
2022/10/20 08:44:34;;;;;;;;;;;23.00;55.80;;;;;;1562782;74;1989;-59
2022/10/20 08:46:36;;;;;;;;;;;23.10;56.00;;;;;;1559804;74;1188;-58
2022/10/20 08:48:38;;;;;;;;;;;23.00;55.90;;;;;;1556828;74;714;-58
2022/10/20 08:50:44;;;;;;;;;;;23.00;55.90;;;;;;1561036;74;787;-54
2022/10/20 08:52:45;;;;;;;;;;;23.00;55.90;;;;;;1556403;74;748;-57
2022/10/20 08:54:48;;;;;;;;;;;23.00;56.00;;;;;;1560455;74;596;-57
2022/10/20 08:56:50;;;;;;;;;;;23.00;56.00;;;;;;1558541;74;1523;-57
2022/10/20 08:58:52;;;;;;;;;;;23.00;56.00;;;;;;1558198;74;794;-55
2022/10/20 09:00:55;;;;;;;;;;;23.00;56.00;;;;;;1555042;74;783;-56
2022/10/20 09:02:59;;;;;;;;;;;23.00;56.00;;;;;;1555875;74;1941;-56
2022/10/20 09:05:01;;;;;;;;;;;23.00;56.00;;;;;;1528118;75;1678;-57
2022/10/20 09:07:04;;;;;;;;;;;23.00;56.10;;;;;;1560615;74;1094;-57
2022/10/20 09:09:06;;;;;;;;;;;23.00;56.00;;;;;;1550241;75;778;-54
2022/10/20 09:11:08;;;;;;;;;;;23.10;56.00;;;;;;1554289;76;1524;-58
2022/10/20 09:13:14;;;;;;;;;;;23.10;56.00;;;;;;1534421;76;828;-60
2022/10/20 09:15:16;;;;;;;;;;;23.10;56.00;;;;;;1566451;74;1745;-58
2022/10/20 09:17:18;;;;;;;;;;;23.20;55.80;;;;;;1555918;74;727;-58
2022/10/20 09:19:21;;;;;;;;;;;23.20;55.70;;;;;;1548108;74;703;-58
2022/10/20 09:21:22;;;;;;;;;;;23.20;55.70;;;;;;1548177;74;790;-58
2022/10/20 09:23:26;;;;;;;;;;;23.20;55.70;;;;;;1562276;74;1939;-58
2022/10/20 09:25:28;;;;;;;;;;;23.20;55.60;;;;;;1566138;74;1485;-58
2022/10/20 09:27:33;;;;;;;;;;;23.20;55.60;;;;;;1568609;75;794;-56
2022/10/20 09:29:36;;;;;;;;;;;23.20;55.70;;;;;;1547100;74;709;-57
2022/10/20 09:31:39;;;;;;;;;;;23.20;55.80;;;;;;1571228;74;797;-55
2022/10/20 09:33:41;;;;;;;;;;;23.20;55.80;;;;;;1559220;75;1084;-57
2022/10/20 09:35:43;;;;;;;;;;;23.20;55.90;;;;;;1554102;74;1147;-54
2022/10/20 09:37:46;;;;;;;;;;;23.20;55.90;;;;;;1550852;75;1190;-54
2022/10/20 09:39:52;;;;;;;;;;;23.20;55.80;;;;;;1554807;75;1638;-59
2022/10/20 09:42:08;;;;;;;;;;;23.20;55.90;;;;;;1550041;74;768;-59
2022/10/20 09:44:12;;;;;;;;;;;23.20;55.70;;;;;;1538630;74;1944;-55
2022/10/20 09:46:14;;;;;;;;;;;23.30;55.90;;;;;;1548293;74;1739;-58
2022/10/20 09:48:18;;;;;;;;;;;23.20;56.00;;;;;;1522547;76;727;-59
2022/10/20 09:50:21;;;;;;;;;;;23.30;55.90;;;;;;1557613;74;905;-59
2022/10/20 09:52:26;;;;;;;;;;;23.30;55.70;;;;;;1565695;74;1124;-58
2022/10/20 09:54:28;;;;;;;;;;;23.40;55.50;;;;;;1559125;74;1427;-59
2022/10/20 09:56:36;;;;;;;;;;;23.40;55.60;;;;;;1554279;74;1153;-59
2022/10/20 09:58:38;;;;;;;;;;;23.30;55.80;;;;;;1559083;74;716;-59
2022/10/20 10:00:42;;;;;;;;;;;23.20;56.00;;;;;;1544859;74;800;-59
2022/10/20 10:02:43;;;;;;;;;;;23.20;56.70;;;;;;1557541;74;1998;-59
2022/10/20 10:04:46;;;;;;;;;;;23.20;56.70;;;;;;1549697;74;710;-60
2022/10/20 10:06:48;;;;;;;;;;;23.10;57.00;;;;;;1565204;74;1533;-60
2022/10/20 10:08:50;;;;;;;;;;;23.10;57.50;;;;;;1562080;74;765;-59
2022/10/20 10:11:04;;;;;;;;;;;23.10;57.70;;;;;;1548834;74;769;-59
2022/10/20 10:13:08;;;;;;;;;;;23.10;57.80;;;;;;1558163;74;795;-58
2022/10/20 10:15:24;;;;;;;;;;;23.10;58.20;;;;;;1563067;74;1135;-59
2022/10/20 10:17:29;;;;;;;;;;;23.00;58.10;;;;;;1552881;74;797;-59
2022/10/20 10:19:32;;;;;;;;;;;23.00;58.20;;;;;;1553907;74;698;-58
2022/10/20 10:21:43;;;;;;;;;;;23.00;58.00;;;;;;1550723;74;1569;-58
2022/10/20 10:24:00;;;;;;;;;;;23.00;58.10;;;;;;1556621;74;1913;-57
2022/10/20 10:26:03;;;;;;;;;;;23.10;58.30;;;;;;1561025;74;1126;-58
2022/10/20 10:28:08;;;;;;;;;;;23.10;58.20;;;;;;1546525;74;763;-59
2022/10/20 10:30:26;;;;;;;;;;;23.10;57.90;;;;;;1562941;74;896;-58
2022/10/20 10:32:28;;;;;;;;;;;23.10;57.90;;;;;;1559305;75;770;-59
2022/10/20 10:34:32;;;;;;;;;;;23.20;57.80;;;;;;1562143;74;799;-58
2022/10/20 10:36:34;;;;;;;;;;;23.10;57.70;;;;;;1564603;74;1610;-59
2022/10/20 10:38:36;;;;;;;;;;;23.20;57.60;;;;;;1556939;74;749;-59
2022/10/20 10:40:49;;;;;;;;;;;23.30;57.10;;;;;;1555101;75;734;-58
2022/10/20 10:42:58;;;;;;;;;;;23.40;56.50;;;;;;1570288;74;1919;-59
2022/10/20 10:45:05;;;;;;;;;;;23.50;56.20;;;;;;1558560;74;1730;-59
2022/10/20 10:47:25;;;;;;;;;;;23.60;55.90;;;;;;1561618;74;1127;-59
2022/10/20 10:49:34;;;;;;;;;;;23.70;55.80;;;;;;1557502;74;1531;-59
2022/10/20 10:51:53;;;;;;;;;;;23.70;55.50;;;;;;1553489;75;719;-59
2022/10/20 10:54:13;;;;;;;;;;;23.70;55.30;;;;;;1556679;74;1881;-59
2022/10/20 10:56:25;;;;;;;;;;;23.80;55.10;;;;;;1564740;74;1137;-58
2022/10/20 10:58:35;;;;;;;;;;;23.80;54.90;;;;;;1561430;75;657;-58
2022/10/20 11:00:39;;;;;;;;;;;23.90;54.90;;;;;;1563610;74;832;-59
2022/10/20 11:03:00;;;;;;;;;;;23.80;54.70;;;;;;1543938;74;729;-58
2022/10/20 11:05:06;;;;;;;;;;;23.90;54.70;;;;;;1544053;74;751;-58
2022/10/20 11:07:19;;;;;;;;;;;23.90;54.60;;;;;;1567923;75;1144;-59
2022/10/20 11:09:31;;;;;;;;;;;23.80;54.50;;;;;;1556968;75;1463;-58
2022/10/20 11:11:38;;;;;;;;;;;23.90;54.60;;;;;;1556224;75;773;-59
2022/10/20 11:13:50;;;;;;;;;;;23.90;54.60;;;;;;1558538;74;1934;-59
2022/10/20 11:15:54;;;;;;;;;;;23.90;54.60;;;;;;1558563;74;2003;-59
2022/10/20 11:18:15;;;;;;;;;;;23.80;54.40;;;;;;1553442;74;2135;-59
2022/10/20 11:20:22;;;;;;;;;;;23.80;54.40;;;;;;1559394;74;780;-58
2022/10/20 11:22:25;;;;;;;;;;;23.80;54.40;;;;;;1559951;74;878;-58
2022/10/20 11:24:47;;;;;;;;;;;23.90;54.40;;;;;;1568935;74;1982;-59
2022/10/20 11:26:53;;;;;;;;;;;23.90;54.30;;;;;;1541769;76;1150;-59
2022/10/20 11:28:55;;;;;;;;;;;23.90;54.40;;;;;;1569542;74;837;-59
2022/10/20 11:30:57;;;;;;;;;;;23.90;54.30;;;;;;1543313;74;785;-59
2022/10/20 11:33:01;;;;;;;;;;;23.90;54.40;;;;;;1559235;74;1629;-58
2022/10/20 11:35:07;;;;;;;;;;;23.90;54.30;;;;;;1557336;74;716;-58
2022/10/20 11:37:14;;;;;;;;;;;23.90;54.30;;;;;;1553387;75;1469;-58
2022/10/20 11:39:26;;;;;;;;;;;23.80;54.20;;;;;;1549759;75;979;-58
2022/10/20 11:41:36;;;;;;;;;;;23.90;54.30;;;;;;1553968;75;747;-58
2022/10/20 11:43:42;;;;;;;;;;;23.90;54.30;;;;;;1569072;75;2132;-58
2022/10/20 11:45:49;;;;;;;;;;;23.70;54.30;;;;;;1539489;75;1581;-58
2022/10/20 11:47:52;;;;;;;;;;;23.70;54.40;;;;;;1554505;75;678;-58
2022/10/20 11:49:54;;;;;;;;;;;23.70;54.20;;;;;;1552062;75;791;-58
2022/10/20 11:52:07;;;;;;;;;;;23.80;54.30;;;;;;1560939;75;767;-58
2022/10/20 11:54:20;;;;;;;;;;;23.70;54.30;;;;;;1549532;75;773;-58
2022/10/20 11:56:23;;;;;;;;;;;23.70;54.30;;;;;;1553311;75;1146;-59
2022/10/20 11:58:32;;;;;;;;;;;23.80;54.40;;;;;;1545098;75;2111;-58
2022/10/20 12:00:36;;;;;;;;;;;23.70;54.40;;;;;;1545985;75;2273;-58
2022/10/20 12:02:39;;;;;;;;;;;23.70;54.30;;;;;;1548338;75;1918;-57
2022/10/20 12:04:43;;;;;;;;;;;23.70;54.30;;;;;;1542523;75;1928;-58
2022/10/20 12:06:49;;;;;;;;;;;23.70;54.20;;;;;;1530500;75;1193;-59
2022/10/20 12:09:09;;;;;;;;;;;23.70;54.20;;;;;;1542703;75;1795;-59
2022/10/20 12:11:19;;;;;;;;;;;23.80;54.20;;;;;;1539892;75;725;-58
2022/10/20 12:13:28;;;;;;;;;;;23.80;54.10;;;;;;1559428;75;663;-58
2022/10/20 12:15:30;;;;;;;;;;;23.70;54.10;;;;;;1539540;75;1134;-58